This is the latest recevied weather packets stored in our database for station/object W4KAB. If no packets are shown the sender has not sent any weather packets the latest 10 day(s).
| Time | Temp. | Humidity | Pressure | Rain* | Wind** | Luminosity | Snow |
|---|---|---|---|---|---|---|---|
| 1777752517 | 19.44° C | 38% | 1012.5 hPa | 0 mm | - | 521 W/m² | - |
| 1777752213 | 18.33° C | 37% | 1012.7 hPa | 0 mm | - | 527 W/m² | - |
| 1777750697 | 17.78° C | 38% | 1013.1 hPa | 0 mm | - | 515 W/m² | - |
| 1777748879 | 17.22° C | 41% | 1013.3 hPa | 0 mm | - | 530 W/m² | - |
| 1777747360 | 18.33° C | 37% | 1013.9 hPa | 0 mm | - | 650 W/m² | - |
| 1777747057 | 17.78° C | 41% | 1013.6 hPa | 0 mm | - | 738 W/m² | - |
| 1777744634 | 16.67° C | 41% | 1014.3 hPa | 0 mm | - | 758 W/m² | - |
| 1777743118 | 14.44° C | 43% | 1014.6 hPa | 0 mm | - | 146 W/m² | - |
| 1777742815 | 14.44° C | 46% | 1014.6 hPa | 0 mm | - | 589 W/m² | - |
| 1777742207 | 13.89° C | 47% | 1014.7 hPa | 0 mm | - | 248 W/m² | - |
| 1777739781 | 13.33° C | 49% | 1015.5 hPa | 0 mm | - | 150 W/m² | - |
| 1777739477 | 12.78° C | 48% | 1015.5 hPa | 0 mm | - | 164 W/m² | - |
| 1777739174 | 12.78° C | 51% | 1015.6 hPa | 0 mm | - | 172 W/m² | - |
| 1777738872 | 12.78° C | 50% | 1015.7 hPa | 0 mm | - | 118 W/m² | - |
| 1777738569 | 12.78° C | 51% | 1015.7 hPa | 0 mm | - | 100 W/m² | - |
| 1777738266 | 12.22° C | 53% | 1015.9 hPa | 0 mm | - | 104 W/m² | - |
| 1777737964 | 12.22° C | 50% | 1015.9 hPa | 0 mm | - | 77 W/m² | - |
| 1777737662 | 12.78° C | 50% | 1016.1 hPa | 0 mm | - | 77 W/m² | - |
| 1777737360 | 12.78° C | 51% | 1016.1 hPa | 0 mm | - | 91 W/m² | - |
| 1777737057 | 12.78° C | 50% | 1015.8 hPa | 0 mm | - | 99 W/m² | - |
| 1777736752 | 12.22° C | 49% | 1015.9 hPa | 0 mm | - | 208 W/m² | - |
| 1777736124 | 11.67° C | 50% | 1016.1 hPa | 0 mm | - | 134 W/m² | - |
| 1777735822 | 11.67° C | 56% | 1016.2 hPa | 0 mm | - | 84 W/m² | - |
| 1777735519 | 11.67° C | 53% | 1016 hPa | 0 mm | - | 88 W/m² | - |
| 1777735217 | 11.11° C | 54% | 1016.2 hPa | 0 mm | - | 72 W/m² | - |
* Rain latest hour (hover to see other rain measurements)
** Current wind speed in m/s (hover to see current wind gust speed)